createdAt,value
2019-03-17T00:00:43.432Z,99800.12
2019-03-17T00:03:15.199Z,99782.09
2019-03-17T00:05:46.957Z,99779.30
2019-03-17T00:08:18.614Z,99769.89
2019-03-17T00:10:52.636Z,99761.73
2019-03-17T00:13:23.777Z,99756.48
2019-03-17T00:15:55.367Z,99758.44
2019-03-17T00:18:27.276Z,99757.72
2019-03-17T00:20:58.866Z,99756.87
2019-03-17T00:23:30.591Z,99756.50
2019-03-17T00:26:02.241Z,99752.59
2019-03-17T00:28:33.928Z,99749.55
2019-03-17T00:31:05.523Z,99749.69
2019-03-17T00:33:37.119Z,99749.83
2019-03-17T00:36:08.713Z,99753.34
2019-03-17T00:38:40.316Z,99749.80
2019-03-17T00:41:12.911Z,99747.96
2019-03-17T00:43:44.549Z,99744.81
2019-03-17T00:46:16.133Z,99750.52
2019-03-17T00:48:47.829Z,99742.33
2019-03-17T00:51:19.456Z,99749.39
2019-03-17T00:53:51.056Z,99736.88
2019-03-17T00:56:22.642Z,99736.16
2019-03-17T00:58:54.368Z,99737.24
2019-03-17T01:01:25.944Z,99728.84
2019-03-17T01:03:58.820Z,99731.16
2019-03-17T01:06:30.584Z,99728.48
2019-03-17T01:09:03.861Z,99726.63
2019-03-17T01:11:35.605Z,99728.11
2019-03-17T01:14:07.198Z,99727.86
2019-03-17T01:16:38.852Z,99725.68
2019-03-17T01:19:10.431Z,99727.71
2019-03-17T01:21:42.013Z,99727.02
2019-03-17T01:24:14.751Z,99729.56
2019-03-17T01:26:46.437Z,99722.83
2019-03-17T01:29:18.175Z,99724.31
2019-03-17T01:31:49.761Z,99716.27
2019-03-17T01:34:22.553Z,99711.37
2019-03-17T01:36:54.358Z,99706.73
2019-03-17T01:39:25.978Z,99707.57
2019-03-17T01:41:57.727Z,99702.20
2019-03-17T01:44:29.345Z,99699.96
2019-03-17T01:47:00.933Z,99687.92
2019-03-17T01:49:32.605Z,99688.25
2019-03-17T01:52:04.457Z,99682.77
2019-03-17T01:54:36.057Z,99684.69
2019-03-17T01:57:08.703Z,99681.53
2019-03-17T01:59:40.383Z,99679.63
2019-03-17T02:02:11.963Z,99677.41
2019-03-17T02:04:43.634Z,99684.11
2019-03-17T02:07:16.476Z,99688.36
2019-03-17T02:09:48.149Z,99689.48
2019-03-17T02:12:19.734Z,99690.45
2019-03-17T02:14:51.395Z,99693.29
2019-03-17T02:17:22.994Z,99697.82
2019-03-17T02:19:54.637Z,99695.58
2019-03-17T02:22:26.296Z,99690.35
2019-03-17T02:24:57.901Z,99688.91
2019-03-17T02:27:30.593Z,99687.89
2019-03-17T02:30:02.214Z,99675.96
2019-03-17T02:32:33.874Z,99671.53
2019-03-17T02:35:05.627Z,99670.45
2019-03-17T02:37:38.305Z,99668.17
2019-03-17T02:40:10.014Z,99671.68
2019-03-17T02:42:41.662Z,99663.27
2019-03-17T02:45:13.251Z,99666.94
2019-03-17T02:47:44.925Z,99659.14
2019-03-17T02:50:16.560Z,99658.78
2019-03-17T02:52:48.135Z,99654.30
2019-03-17T02:55:19.809Z,99655.98
2019-03-17T02:57:51.385Z,99649.76
2019-03-17T03:00:22.963Z,99645.16
2019-03-17T03:02:54.775Z,99658.20
2019-03-17T03:05:26.363Z,99658.78
2019-03-17T03:07:58.051Z,99642.06
2019-03-17T03:10:31.870Z,99654.14
2019-03-17T03:13:03.476Z,99645.94
2019-03-17T03:15:35.059Z,99647.39
2019-03-17T03:18:06.677Z,99649.81
2019-03-17T03:20:38.342Z,99649.45
2019-03-17T03:23:09.921Z,99650.42
2019-03-17T03:25:41.598Z,99642.85
2019-03-17T03:28:13.196Z,99644.19
2019-03-17T03:30:44.804Z,99642.13
2019-03-17T03:33:16.387Z,99644.70
2019-03-17T03:35:48.061Z,99638.97
2019-03-17T03:38:19.716Z,99642.95
2019-03-17T03:40:51.361Z,99632.48
2019-03-17T03:43:22.980Z,99629.95
2019-03-17T03:45:54.725Z,99635.31
2019-03-17T03:48:26.326Z,99629.22
2019-03-17T03:50:57.895Z,99631.77
2019-03-17T03:53:29.542Z,99632.78
2019-03-17T03:56:01.461Z,99626.48
2019-03-17T03:58:33.048Z,99625.16
2019-03-17T04:01:04.707Z,99611.88
2019-03-17T04:03:36.362Z,99621.39
2019-03-17T04:06:07.946Z,99620.55
2019-03-17T04:08:39.991Z,99616.17
2019-03-17T04:11:11.680Z,99613.48
2019-03-17T04:13:43.342Z,99612.72
2019-03-17T04:16:15.009Z,99611.42
2019-03-17T04:18:47.577Z,99608.28
2019-03-17T04:21:19.182Z,99609.36
2019-03-17T04:23:50.837Z,99609.46
2019-03-17T04:26:22.439Z,99603.95
2019-03-17T04:28:54.045Z,99598.38
2019-03-17T04:31:25.648Z,99597.66
2019-03-17T04:33:57.498Z,99602.80
2019-03-17T04:36:39.499Z,99600.55
2019-03-17T04:39:02.375Z,99598.38
2019-03-17T04:41:34.134Z,99590.44
2019-03-17T04:44:05.702Z,99590.63
2019-03-17T04:46:37.373Z,99590.59
2019-03-17T04:49:09.046Z,99589.97
2019-03-17T04:51:40.635Z,99582.14
2019-03-17T04:54:12.212Z,99579.96
2019-03-17T04:56:43.966Z,99581.41
2019-03-17T04:59:15.556Z,99578.48
2019-03-17T05:01:47.233Z,99569.70
2019-03-17T05:04:19.000Z,99573.30
2019-03-17T05:06:52.913Z,99570.62
2019-03-17T05:09:23.948Z,99568.45
2019-03-17T05:11:55.610Z,99569.97
2019-03-17T05:14:27.509Z,99564.61
2019-03-17T05:16:59.181Z,99557.58
2019-03-17T05:19:30.832Z,99551.92
2019-03-17T05:22:02.423Z,99539.89
2019-03-17T05:24:34.068Z,99546.50
2019-03-17T05:27:05.664Z,99543.73
2019-03-17T05:29:37.227Z,99543.37
2019-03-17T05:32:08.833Z,99541.20
2019-03-17T05:34:40.420Z,99541.30
2019-03-17T05:37:12.028Z,99541.05
2019-03-17T05:39:43.624Z,99537.39
2019-03-17T05:42:15.215Z,99533.05
2019-03-17T05:44:46.886Z,99537.43
2019-03-17T05:47:18.498Z,99533.36
2019-03-17T05:49:50.268Z,99529.60
2019-03-17T05:52:22.173Z,99524.20
2019-03-17T05:54:54.386Z,99526.14
2019-03-17T05:57:25.966Z,99524.44
2019-03-17T05:59:57.849Z,99527.47
2019-03-17T06:02:29.523Z,99517.97
2019-03-17T06:05:01.113Z,99521.70
2019-03-17T06:07:32.784Z,99518.64
2019-03-17T06:10:04.447Z,99521.27
2019-03-17T06:12:36.089Z,99523.42
2019-03-17T06:15:09.466Z,99521.20
2019-03-17T06:17:41.074Z,99517.36
2019-03-17T06:20:13.638Z,99525.92
2019-03-17T06:22:45.309Z,99522.61
2019-03-17T06:25:17.000Z,99520.82
2019-03-17T06:27:48.656Z,99515.55
2019-03-17T06:30:20.239Z,99519.86
2019-03-17T06:32:52.305Z,99511.88
2019-03-17T06:35:24.045Z,99513.16
2019-03-17T06:37:55.860Z,99509.06
2019-03-17T06:40:27.880Z,99513.80
2019-03-17T06:43:02.121Z,99502.70
2019-03-17T06:45:35.117Z,99500.11
2019-03-17T06:48:07.545Z,99498.49
2019-03-17T06:50:40.054Z,99497.66
2019-03-17T06:53:12.423Z,99491.23
2019-03-17T06:55:45.721Z,99492.42
2019-03-17T06:58:17.573Z,99484.25
2019-03-17T07:00:49.275Z,99497.60
2019-03-17T07:03:21.090Z,99498.31
2019-03-17T07:05:52.689Z,99498.23
2019-03-17T07:08:24.830Z,99496.77
2019-03-17T07:10:56.955Z,99492.59
2019-03-17T07:13:28.682Z,99491.95
2019-03-17T07:16:02.091Z,99487.93
2019-03-17T07:18:33.914Z,99480.30
2019-03-17T07:21:08.521Z,99478.84
2019-03-17T07:23:40.334Z,99482.15
2019-03-17T07:26:13.726Z,99479.96
2019-03-17T07:28:46.112Z,99481.92
2019-03-17T07:31:18.081Z,99479.06
2019-03-17T07:33:49.797Z,99478.84
2019-03-17T07:36:21.403Z,99486.60
2019-03-17T07:38:53.169Z,99486.83
2019-03-17T07:41:25.124Z,99480.75
2019-03-17T07:43:58.202Z,99472.68
2019-03-17T07:46:30.024Z,99469.95
2019-03-17T07:49:01.978Z,99471.11
2019-03-17T07:51:33.566Z,99471.17
2019-03-17T07:54:05.195Z,99473.34
2019-03-17T07:56:36.829Z,99468.19
2019-03-17T07:59:08.456Z,99462.65
2019-03-17T08:01:40.057Z,99460.27
2019-03-17T08:04:13.347Z,99466.23
2019-03-17T08:06:45.251Z,99456.99
2019-03-17T08:09:17.076Z,99452.41
2019-03-17T08:11:50.820Z,99456.53
2019-03-17T08:14:22.451Z,99442.27
2019-03-17T08:16:54.125Z,99449.58
2019-03-17T08:19:25.866Z,99450.24
2019-03-17T08:21:57.598Z,99438.59
2019-03-17T08:24:30.431Z,99442.69
2019-03-17T08:27:02.968Z,99435.55
2019-03-17T08:29:34.732Z,99433.92
2019-03-17T08:32:06.314Z,99428.57
2019-03-17T08:34:38.004Z,99437.31
2019-03-17T08:37:09.776Z,99439.80
2019-03-17T08:39:41.481Z,99435.41
2019-03-17T08:42:13.142Z,99440.11
2019-03-17T08:44:44.857Z,99441.97
2019-03-17T08:47:16.499Z,99445.08
2019-03-17T08:49:48.163Z,99447.14
2019-03-17T08:52:19.794Z,99451.08
2019-03-17T08:54:51.608Z,99443.34
2019-03-17T08:57:23.270Z,99440.65
2019-03-17T08:59:54.916Z,99445.37
2019-03-17T09:02:26.677Z,99439.30
2019-03-17T09:04:58.361Z,99432.40
2019-03-17T09:07:30.038Z,99439.88
2019-03-17T09:10:02.012Z,99434.88
2019-03-17T09:12:33.778Z,99437.44
2019-03-17T09:15:05.616Z,99431.89
2019-03-17T09:17:37.288Z,99432.23
2019-03-17T09:20:09.194Z,99431.80
2019-03-17T09:22:41.137Z,99440.66
2019-03-17T09:25:12.914Z,99441.31
2019-03-17T09:27:44.535Z,99428.81
2019-03-17T09:30:16.235Z,99428.84
2019-03-17T09:32:48.009Z,99421.41
2019-03-17T09:35:19.619Z,99417.32
2019-03-17T09:37:51.250Z,99414.63
2019-03-17T09:40:22.957Z,99408.88
2019-03-17T09:42:54.573Z,99407.67
2019-03-17T09:45:26.199Z,99402.06
2019-03-17T09:47:57.944Z,99404.41
2019-03-17T09:50:30.517Z,99410.98
2019-03-17T09:53:02.113Z,99405.84
2019-03-17T09:55:33.760Z,99396.80
2019-03-17T09:58:05.372Z,99402.17
2019-03-17T10:00:36.955Z,99402.17
2019-03-17T10:03:08.549Z,99400.06
2019-03-17T10:05:40.159Z,99401.41
2019-03-17T10:08:11.728Z,99401.41
2019-03-17T10:10:43.330Z,99394.03
2019-03-17T10:13:14.949Z,99386.08
2019-03-17T10:15:46.551Z,99377.32
2019-03-17T10:18:18.204Z,99387.31
2019-03-17T10:20:49.797Z,99387.31
2019-03-17T10:23:21.395Z,99387.98
2019-03-17T10:25:53.007Z,99379.94
2019-03-17T10:28:24.587Z,99379.94
2019-03-17T10:30:56.181Z,99371.72
2019-03-17T10:33:27.915Z,99378.46
2019-03-17T10:35:59.767Z,99378.46
2019-03-17T10:38:31.455Z,99391.66
2019-03-17T10:41:04.047Z,99373.27
2019-03-17T10:43:35.721Z,99370.20
2019-03-17T10:46:07.339Z,99404.66
2019-03-17T10:48:38.999Z,99378.27
2019-03-17T10:51:10.684Z,99389.67
2019-03-17T10:53:42.283Z,99368.96
2019-03-17T10:56:13.899Z,99378.17
2019-03-17T10:58:45.553Z,99379.98
2019-03-17T11:01:17.228Z,99383.42
2019-03-17T11:03:48.912Z,99396.83
2019-03-17T11:06:20.560Z,99365.59
2019-03-17T11:08:52.149Z,99354.44
2019-03-17T11:11:23.835Z,99356.41
2019-03-17T11:13:55.438Z,99377.23
2019-03-17T11:16:27.171Z,99358.76
2019-03-17T11:18:58.949Z,99355.02
2019-03-17T11:21:30.566Z,99368.25
2019-03-17T11:24:02.165Z,99353.98
2019-03-17T11:26:33.841Z,99341.94
2019-03-17T11:29:05.445Z,99345.03
2019-03-17T11:31:37.059Z,99349.61
2019-03-17T11:34:08.642Z,99335.70
2019-03-17T11:36:40.247Z,99342.44
2019-03-17T11:39:11.839Z,99338.30
2019-03-17T11:41:43.496Z,99341.08
2019-03-17T11:44:15.101Z,99332.38
2019-03-17T11:46:46.726Z,99333.45
2019-03-17T11:49:18.391Z,99321.39
2019-03-17T11:51:50.010Z,99343.83
2019-03-17T11:54:21.661Z,99345.13
2019-03-17T11:56:53.280Z,99336.55
2019-03-17T11:59:24.871Z,99331.31
2019-03-17T12:01:56.701Z,99336.11
2019-03-17T12:04:28.333Z,99343.06
2019-03-17T12:07:00.011Z,99336.58
2019-03-17T12:09:31.812Z,99332.83
2019-03-17T12:12:03.426Z,99325.39
2019-03-17T12:14:35.025Z,99324.84
2019-03-17T12:17:06.696Z,99308.51
2019-03-17T12:19:38.292Z,99309.56
2019-03-17T12:22:10.883Z,99311.23
2019-03-17T12:24:42.543Z,99304.12
2019-03-17T12:27:14.169Z,99303.07
2019-03-17T12:29:45.758Z,99320.09
2019-03-17T12:32:17.475Z,99315.37
2019-03-17T12:34:49.061Z,99314.55
2019-03-17T12:37:20.745Z,99314.45
2019-03-17T12:40:02.115Z,99330.21
2019-03-17T12:42:25.717Z,99318.02
2019-03-17T12:44:57.312Z,99306.79
2019-03-17T12:47:29.037Z,99312.53
2019-03-17T12:50:00.876Z,99310.47
2019-03-17T12:52:32.754Z,99305.80
2019-03-17T12:55:04.371Z,99304.44
2019-03-17T12:57:36.061Z,99305.80
2019-03-17T13:00:09.463Z,99296.61
2019-03-17T13:02:41.136Z,99301.40
2019-03-17T13:05:12.894Z,99308.78
2019-03-17T13:07:44.520Z,99293.30
2019-03-17T13:10:16.809Z,99297.05
2019-03-17T13:12:48.622Z,99294.92
2019-03-17T13:15:21.200Z,99305.09
2019-03-17T13:17:52.889Z,99304.26
2019-03-17T13:20:24.530Z,99306.05
2019-03-17T13:22:58.878Z,99302.52
2019-03-17T13:25:30.486Z,99303.73
2019-03-17T13:28:02.111Z,99297.64
2019-03-17T13:30:33.788Z,99294.87
2019-03-17T13:33:05.472Z,99303.61
2019-03-17T13:35:37.076Z,99289.09
2019-03-17T13:38:08.690Z,99294.28
2019-03-17T13:40:40.279Z,99292.15
2019-03-17T13:43:11.900Z,99302.91
2019-03-17T13:45:43.571Z,99307.42
2019-03-17T13:48:15.192Z,99290.47
2019-03-17T13:50:46.773Z,99300.69
2019-03-17T13:53:18.430Z,99298.11
2019-03-17T13:55:50.035Z,99303.07
2019-03-17T13:58:21.776Z,99309.64
2019-03-17T14:00:53.379Z,99308.39
2019-03-17T14:03:25.014Z,99313.77
2019-03-17T14:05:57.055Z,99300.12
2019-03-17T14:08:28.662Z,99295.23
2019-03-17T14:11:00.266Z,99297.79
2019-03-17T14:13:31.992Z,99294.66
2019-03-17T14:16:03.658Z,99284.97
2019-03-17T14:18:36.238Z,99280.95
2019-03-17T14:21:07.833Z,99282.52
2019-03-17T14:23:39.463Z,99288.13
2019-03-17T14:26:11.131Z,99294.55
2019-03-17T14:28:42.726Z,99300.30
2019-03-17T14:31:14.318Z,99317.85
2019-03-17T14:33:45.941Z,99316.94
2019-03-17T14:36:17.544Z,99317.20
2019-03-17T14:38:49.150Z,99312.00
2019-03-17T14:41:20.734Z,99326.98
2019-03-17T14:43:52.355Z,99328.73
2019-03-17T14:46:23.944Z,99327.48
2019-03-17T14:48:55.571Z,99339.01
2019-03-17T14:51:27.293Z,99325.42
2019-03-17T14:54:00.162Z,99337.91
2019-03-17T14:56:31.850Z,99343.84
2019-03-17T14:59:03.488Z,99341.91
2019-03-17T15:01:36.330Z,99330.96
2019-03-17T15:04:08.113Z,99324.44
2019-03-17T15:06:39.755Z,99322.05
2019-03-17T15:09:11.389Z,99318.14
2019-03-17T15:11:43.066Z,99312.21
2019-03-17T15:14:14.817Z,99300.50
2019-03-17T15:16:46.419Z,99305.09
2019-03-17T15:19:18.112Z,99301.22
2019-03-17T15:21:49.812Z,99309.70
2019-03-17T15:24:21.421Z,99313.72
2019-03-17T15:26:53.028Z,99318.43
2019-03-17T15:29:24.657Z,99315.05
2019-03-17T15:31:56.420Z,99310.52
2019-03-17T15:34:28.291Z,99311.03
2019-03-17T15:37:00.204Z,99318.23
2019-03-17T15:39:31.996Z,99310.96
2019-03-17T15:42:03.665Z,99321.67
2019-03-17T15:44:35.266Z,99319.95
2019-03-17T15:47:06.874Z,99316.04
2019-03-17T15:49:38.500Z,99309.09
2019-03-17T15:52:10.178Z,99302.16
2019-03-17T15:54:41.854Z,99302.16
2019-03-17T15:57:13.465Z,99300.64
2019-03-17T15:59:45.242Z,99301.55
2019-03-17T16:02:16.858Z,99304.88
2019-03-17T16:04:48.485Z,99298.47
2019-03-17T16:07:20.080Z,99290.75
2019-03-17T16:09:51.737Z,99294.98
2019-03-17T16:12:23.341Z,99292.14
2019-03-17T16:14:54.960Z,99299.22
2019-03-17T16:17:26.976Z,99301.76
2019-03-17T16:19:58.601Z,99312.45
2019-03-17T16:22:30.214Z,99317.42
2019-03-17T16:25:01.951Z,99320.20
2019-03-17T16:27:33.541Z,99321.23
2019-03-17T16:30:05.618Z,99336.03
2019-03-17T16:32:37.299Z,99341.62
2019-03-17T16:35:09.015Z,99344.23
2019-03-17T16:37:45.042Z,99348.59
2019-03-17T16:40:18.166Z,99349.22
2019-03-17T16:42:49.897Z,99354.18
2019-03-17T16:45:21.714Z,99363.76
2019-03-17T16:47:53.432Z,99376.94
2019-03-17T16:50:25.095Z,99376.94
2019-03-17T16:52:57.263Z,99369.31
2019-03-17T16:55:28.969Z,99362.77
2019-03-17T16:58:00.652Z,99365.25
2019-03-17T17:00:32.360Z,99385.58
2019-03-17T17:03:04.156Z,99389.00
2019-03-17T17:05:35.812Z,99407.66
2019-03-17T17:08:07.504Z,99438.54
2019-03-17T17:10:39.271Z,99438.54
2019-03-17T17:13:10.852Z,99439.27
2019-03-17T17:15:42.531Z,99444.70
2019-03-17T17:18:14.137Z,99453.16
2019-03-17T17:20:45.821Z,99470.21
2019-03-17T17:23:17.492Z,99492.87
2019-03-17T17:25:49.185Z,99497.66
2019-03-17T17:28:20.881Z,99517.56
2019-03-17T17:30:52.705Z,99535.36
2019-03-17T17:33:24.395Z,99573.05
2019-03-17T17:35:56.546Z,99560.89
2019-03-17T17:38:28.464Z,99554.62
2019-03-17T17:41:00.454Z,99571.89
2019-03-17T17:43:33.062Z,99585.33
2019-03-17T17:46:04.804Z,99603.73
2019-03-17T17:48:36.402Z,99604.90
2019-03-17T17:51:08.140Z,99606.92
2019-03-17T17:53:39.827Z,99626.69
2019-03-17T17:56:12.793Z,99620.44
2019-03-17T17:58:44.715Z,99614.47
2019-03-17T18:01:16.410Z,99628.19
2019-03-17T18:03:51.781Z,99640.88
2019-03-17T18:06:21.419Z,99644.91
2019-03-17T18:08:53.096Z,99648.03
2019-03-17T18:11:24.776Z,99657.02
2019-03-17T18:13:56.583Z,99652.78
2019-03-17T18:16:28.731Z,99660.34
2019-03-17T18:19:00.633Z,99660.97
2019-03-17T18:21:32.476Z,99658.64
2019-03-17T18:24:04.230Z,99657.63
2019-03-17T18:26:35.924Z,99674.84
2019-03-17T18:29:07.598Z,99636.69
2019-03-17T18:31:39.281Z,99671.41
2019-03-17T18:34:10.895Z,99693.50
2019-03-17T18:36:42.575Z,99705.93
2019-03-17T18:39:15.140Z,99697.77
2019-03-17T18:41:46.741Z,99702.21
2019-03-17T18:44:18.805Z,99745.12
2019-03-17T18:46:50.422Z,99754.27
2019-03-17T18:49:22.019Z,99766.94
2019-03-17T18:51:53.635Z,99787.50
2019-03-17T18:54:25.177Z,99784.34
2019-03-17T18:56:56.903Z,99780.56
2019-03-17T18:59:28.724Z,99784.20
2019-03-17T19:02:00.637Z,99797.97
2019-03-17T19:04:32.607Z,99809.52
2019-03-17T19:07:04.282Z,99817.70
2019-03-17T19:09:35.949Z,99819.87
2019-03-17T19:12:07.598Z,99819.64
2019-03-17T19:14:39.286Z,99803.33
2019-03-17T19:17:10.987Z,99803.57
2019-03-17T19:19:42.617Z,99792.48
2019-03-17T19:22:14.236Z,99792.23
2019-03-17T19:24:45.839Z,99793.97
2019-03-17T19:27:17.432Z,99791.05
2019-03-17T19:29:49.447Z,99795.66
2019-03-17T19:32:21.133Z,99798.58
2019-03-17T19:34:52.747Z,99803.47
2019-03-17T19:37:24.438Z,99804.80
2019-03-17T19:39:56.156Z,99805.66
2019-03-17T19:42:27.808Z,99804.06
2019-03-17T19:45:00.263Z,99802.95
2019-03-17T19:47:32.442Z,99814.17
2019-03-17T19:50:04.356Z,99823.08
2019-03-17T19:52:36.123Z,99823.78
2019-03-17T19:55:07.709Z,99831.97
2019-03-17T19:57:39.444Z,99840.84
2019-03-17T20:00:13.088Z,99855.95
2019-03-17T20:02:47.431Z,99855.34
2019-03-17T20:05:19.157Z,99856.55
2019-03-17T20:07:52.095Z,99850.70
2019-03-17T20:10:24.078Z,99847.28
2019-03-17T20:12:55.830Z,99857.87
2019-03-17T20:15:27.653Z,99851.64
2019-03-17T20:17:59.344Z,99853.11
2019-03-17T20:20:31.019Z,99857.16
2019-03-17T20:23:02.757Z,99849.70
2019-03-17T20:25:34.441Z,99854.69
2019-03-17T20:28:07.793Z,99852.48
2019-03-17T20:30:40.152Z,99843.23
2019-03-17T20:33:12.606Z,99842.27
2019-03-17T20:35:44.591Z,99850.91
2019-03-17T20:38:16.901Z,99840.09
2019-03-17T20:40:48.977Z,99850.44
2019-03-17T20:43:34.165Z,99838.75
2019-03-17T20:45:54.286Z,99830.74
2019-03-17T20:48:26.398Z,99834.36
2019-03-17T20:50:59.928Z,99830.72
2019-03-17T20:53:31.630Z,99826.70
2019-03-17T20:56:03.932Z,99820.13
2019-03-17T20:58:37.404Z,99832.19
2019-03-17T21:01:09.526Z,99831.69
2019-03-17T21:03:41.545Z,99831.58
2019-03-17T21:06:13.545Z,99815.35
2019-03-17T21:08:45.511Z,99810.02
2019-03-17T21:11:17.239Z,99821.61
2019-03-17T21:13:49.228Z,99829.51
2019-03-17T21:16:21.336Z,99834.99
2019-03-17T21:18:54.741Z,99829.88
2019-03-17T21:21:27.662Z,99832.45
2019-03-17T21:24:00.067Z,99835.70
2019-03-17T21:26:32.580Z,99852.88
2019-03-17T21:29:05.431Z,99873.94
2019-03-17T21:31:37.823Z,99874.91
2019-03-17T21:34:10.121Z,99876.61
2019-03-17T21:36:41.802Z,99877.35
2019-03-17T21:39:13.432Z,99873.20
2019-03-17T21:41:45.086Z,99883.31
2019-03-17T21:44:16.777Z,99882.11
2019-03-17T21:46:48.360Z,99890.14
2019-03-17T21:49:20.038Z,99894.16
2019-03-17T21:51:51.637Z,99895.37
2019-03-17T21:54:23.243Z,99900.86
2019-03-17T21:56:54.852Z,99902.52
2019-03-17T21:59:26.914Z,99906.67
2019-03-17T22:02:12.085Z,99907.01
2019-03-17T22:04:33.206Z,99902.28
2019-03-17T22:07:04.986Z,99900.58
2019-03-17T22:09:36.739Z,99914.94
2019-03-17T22:12:08.329Z,99926.77
2019-03-17T22:14:41.009Z,99924.09
2019-03-17T22:17:12.670Z,99929.21
2019-03-17T22:19:44.358Z,99932.59
2019-03-17T22:22:15.956Z,99948.28
2019-03-17T22:24:47.554Z,99951.32
2019-03-17T22:27:19.218Z,99954.22
2019-03-17T22:29:50.875Z,99963.23
2019-03-17T22:32:22.488Z,99968.13
2019-03-17T22:34:55.085Z,99978.41
2019-03-17T22:37:26.929Z,99967.46
2019-03-17T22:39:58.798Z,99974.51
2019-03-17T22:42:30.706Z,99971.78
2019-03-17T22:45:02.393Z,99986.19
2019-03-17T22:47:34.055Z,99974.51
2019-03-17T22:50:05.850Z,99978.37
2019-03-17T22:52:37.430Z,99973.86
2019-03-17T22:55:09.133Z,99968.95
2019-03-17T22:57:40.686Z,99967.25
2019-03-17T23:00:14.961Z,99972.23
2019-03-17T23:02:48.163Z,99968.04
2019-03-17T23:05:19.836Z,99961.81
2019-03-17T23:07:51.486Z,99974.59
2019-03-17T23:10:23.090Z,99977.71
2019-03-17T23:12:54.693Z,99979.55
2019-03-17T23:15:26.354Z,99984.64
2019-03-17T23:17:57.923Z,99978.53
2019-03-17T23:20:29.853Z,99975.98
2019-03-17T23:23:01.704Z,99992.72
2019-03-17T23:25:33.634Z,99989.30
2019-03-17T23:28:05.308Z,100000.01
2019-03-17T23:30:36.994Z,100003.93
2019-03-17T23:33:08.670Z,100016.31
2019-03-17T23:35:40.351Z,100025.93
2019-03-17T23:38:11.954Z,100019.21
2019-03-17T23:40:43.534Z,100024.41
2019-03-17T23:43:15.121Z,100022.26
2019-03-17T23:45:46.810Z,100016.84
2019-03-17T23:48:18.514Z,100021.95
2019-03-17T23:50:50.122Z,100018.94
2019-03-17T23:53:21.807Z,100019.86
2019-03-17T23:55:53.475Z,100018.59
2019-03-17T23:58:25.025Z,100020.27
